sensor_id;sensor_type;location;lat;lon;timestamp;P1;durP1;ratioP1;P2;durP2;ratioP2
13641;SDS011;6894;52.196;9.904;2023-12-20T00:02:09;4.07;;;3.77;;
13641;SDS011;6894;52.196;9.904;2023-12-20T00:04:36;4.13;;;3.80;;
13641;SDS011;6894;52.196;9.904;2023-12-20T00:07:03;4.13;;;3.80;;
13641;SDS011;6894;52.196;9.904;2023-12-20T00:09:30;4.47;;;4.07;;
13641;SDS011;6894;52.196;9.904;2023-12-20T00:11:58;3.80;;;3.50;;
13641;SDS011;6894;52.196;9.904;2023-12-20T00:14:24;3.37;;;3.07;;
13641;SDS011;6894;52.196;9.904;2023-12-20T00:16:51;3.83;;;3.47;;
13641;SDS011;6894;52.196;9.904;2023-12-20T00:19:18;3.67;;;3.37;;
13641;SDS011;6894;52.196;9.904;2023-12-20T00:21:45;3.83;;;3.53;;
13641;SDS011;6894;52.196;9.904;2023-12-20T00:24:11;3.70;;;3.40;;
13641;SDS011;6894;52.196;9.904;2023-12-20T00:26:38;3.60;;;3.30;;
13641;SDS011;6894;52.196;9.904;2023-12-20T00:29:06;4.10;;;3.80;;
13641;SDS011;6894;52.196;9.904;2023-12-20T00:31:33;3.60;;;3.30;;
13641;SDS011;6894;52.196;9.904;2023-12-20T00:34:00;4.17;;;3.80;;
13641;SDS011;6894;52.196;9.904;2023-12-20T00:36:26;3.53;;;3.23;;
13641;SDS011;6894;52.196;9.904;2023-12-20T00:38:53;4.07;;;3.67;;
13641;SDS011;6894;52.196;9.904;2023-12-20T00:41:20;3.90;;;3.50;;
13641;SDS011;6894;52.196;9.904;2023-12-20T00:43:46;4.50;;;3.80;;
13641;SDS011;6894;52.196;9.904;2023-12-20T00:46:15;6.07;;;4.10;;
13641;SDS011;6894;52.196;9.904;2023-12-20T00:48:42;4.83;;;3.87;;
13641;SDS011;6894;52.196;9.904;2023-12-20T00:51:10;7.30;;;3.70;;
13641;SDS011;6894;52.196;9.904;2023-12-20T00:53:37;7.43;;;3.90;;
13641;SDS011;6894;52.196;9.904;2023-12-20T00:56:04;6.33;;;4.27;;
13641;SDS011;6894;52.196;9.904;2023-12-20T00:58:31;6.03;;;3.90;;
13641;SDS011;6894;52.196;9.904;2023-12-20T01:00:57;6.50;;;3.17;;
13641;SDS011;6894;52.196;9.904;2023-12-20T01:03:25;8.90;;;3.20;;
13641;SDS011;6894;52.196;9.904;2023-12-20T01:05:52;6.97;;;3.10;;
13641;SDS011;6894;52.196;9.904;2023-12-20T01:08:19;8.03;;;4.77;;
13641;SDS011;6894;52.196;9.904;2023-12-20T01:10:45;4.80;;;3.37;;
13641;SDS011;6894;52.196;9.904;2023-12-20T01:13:12;6.80;;;3.77;;
13641;SDS011;6894;52.196;9.904;2023-12-20T01:15:39;5.03;;;3.10;;
13641;SDS011;6894;52.196;9.904;2023-12-20T01:18:06;5.63;;;2.87;;
13641;SDS011;6894;52.196;9.904;2023-12-20T01:20:35;4.03;;;2.83;;
13641;SDS011;6894;52.196;9.904;2023-12-20T01:23:01;6.77;;;2.97;;
13641;SDS011;6894;52.196;9.904;2023-12-20T01:25:28;5.90;;;2.27;;
13641;SDS011;6894;52.196;9.904;2023-12-20T01:27:55;6.47;;;2.40;;
13641;SDS011;6894;52.196;9.904;2023-12-20T01:30:22;6.57;;;1.67;;
13641;SDS011;6894;52.196;9.904;2023-12-20T01:32:49;4.53;;;1.30;;
13641;SDS011;6894;52.196;9.904;2023-12-20T01:35:16;6.30;;;1.67;;
13641;SDS011;6894;52.196;9.904;2023-12-20T01:37:44;2.87;;;0.90;;
13641;SDS011;6894;52.196;9.904;2023-12-20T01:40:10;4.43;;;1.13;;
13641;SDS011;6894;52.196;9.904;2023-12-20T01:42:37;3.63;;;0.83;;
13641;SDS011;6894;52.196;9.904;2023-12-20T01:45:04;6.67;;;1.03;;
13641;SDS011;6894;52.196;9.904;2023-12-20T01:47:31;4.13;;;1.00;;
13641;SDS011;6894;52.196;9.904;2023-12-20T01:49:58;4.60;;;1.20;;
13641;SDS011;6894;52.196;9.904;2023-12-20T01:52:25;4.37;;;0.73;;
13641;SDS011;6894;52.196;9.904;2023-12-20T01:54:54;5.80;;;1.00;;
13641;SDS011;6894;52.196;9.904;2023-12-20T01:57:27;4.27;;;1.10;;
13641;SDS011;6894;52.196;9.904;2023-12-20T01:59:54;3.60;;;1.00;;
13641;SDS011;6894;52.196;9.904;2023-12-20T02:02:22;5.90;;;1.57;;
13641;SDS011;6894;52.196;9.904;2023-12-20T02:04:49;4.97;;;0.90;;
13641;SDS011;6894;52.196;9.904;2023-12-20T02:07:16;8.83;;;1.27;;
13641;SDS011;6894;52.196;9.904;2023-12-20T02:09:44;8.50;;;1.33;;
13641;SDS011;6894;52.196;9.904;2023-12-20T02:12:12;6.43;;;1.23;;
13641;SDS011;6894;52.196;9.904;2023-12-20T02:14:39;4.57;;;0.93;;
13641;SDS011;6894;52.196;9.904;2023-12-20T02:17:05;3.80;;;1.00;;
13641;SDS011;6894;52.196;9.904;2023-12-20T02:19:32;7.23;;;1.07;;
13641;SDS011;6894;52.196;9.904;2023-12-20T02:22:07;7.20;;;1.83;;
13641;SDS011;6894;52.196;9.904;2023-12-20T02:24:34;5.47;;;0.90;;
13641;SDS011;6894;52.196;9.904;2023-12-20T02:27:01;7.83;;;1.50;;
13641;SDS011;6894;52.196;9.904;2023-12-20T02:29:28;7.23;;;1.17;;
13641;SDS011;6894;52.196;9.904;2023-12-20T02:31:55;4.57;;;1.00;;
13641;SDS011;6894;52.196;9.904;2023-12-20T02:34:22;1.87;;;0.80;;
13641;SDS011;6894;52.196;9.904;2023-12-20T02:36:49;3.17;;;1.00;;
13641;SDS011;6894;52.196;9.904;2023-12-20T02:39:17;6.73;;;0.90;;
13641;SDS011;6894;52.196;9.904;2023-12-20T02:41:45;4.23;;;1.10;;
13641;SDS011;6894;52.196;9.904;2023-12-20T02:44:11;6.33;;;1.20;;
13641;SDS011;6894;52.196;9.904;2023-12-20T02:46:38;5.27;;;1.10;;
13641;SDS011;6894;52.196;9.904;2023-12-20T02:49:05;4.70;;;1.30;;
13641;SDS011;6894;52.196;9.904;2023-12-20T02:51:32;3.83;;;0.90;;
13641;SDS011;6894;52.196;9.904;2023-12-20T02:53:58;4.23;;;0.97;;
13641;SDS011;6894;52.196;9.904;2023-12-20T02:56:26;4.47;;;1.20;;
13641;SDS011;6894;52.196;9.904;2023-12-20T02:58:52;6.03;;;1.13;;
13641;SDS011;6894;52.196;9.904;2023-12-20T03:01:19;5.90;;;1.30;;
13641;SDS011;6894;52.196;9.904;2023-12-20T03:03:46;4.27;;;0.80;;
13641;SDS011;6894;52.196;9.904;2023-12-20T03:06:15;1.90;;;0.80;;
13641;SDS011;6894;52.196;9.904;2023-12-20T03:08:43;2.93;;;0.90;;
13641;SDS011;6894;52.196;9.904;2023-12-20T03:11:10;3.53;;;0.80;;
13641;SDS011;6894;52.196;9.904;2023-12-20T03:13:38;6.07;;;1.13;;
13641;SDS011;6894;52.196;9.904;2023-12-20T03:16:07;3.17;;;0.70;;
13641;SDS011;6894;52.196;9.904;2023-12-20T03:18:35;2.50;;;0.80;;
13641;SDS011;6894;52.196;9.904;2023-12-20T03:21:02;3.07;;;0.90;;
13641;SDS011;6894;52.196;9.904;2023-12-20T03:23:29;2.73;;;0.70;;
13641;SDS011;6894;52.196;9.904;2023-12-20T03:25:57;3.77;;;0.70;;
13641;SDS011;6894;52.196;9.904;2023-12-20T03:28:24;4.73;;;0.73;;
13641;SDS011;6894;52.196;9.904;2023-12-20T03:30:52;5.27;;;1.80;;
13641;SDS011;6894;52.196;9.904;2023-12-20T03:33:19;4.70;;;1.00;;
13641;SDS011;6894;52.196;9.904;2023-12-20T03:35:46;6.33;;;1.73;;
13641;SDS011;6894;52.196;9.904;2023-12-20T03:38:12;6.03;;;0.93;;
13641;SDS011;6894;52.196;9.904;2023-12-20T03:40:39;7.57;;;1.73;;
13641;SDS011;6894;52.196;9.904;2023-12-20T03:43:06;6.33;;;1.30;;
13641;SDS011;6894;52.196;9.904;2023-12-20T03:45:33;6.17;;;1.13;;
13641;SDS011;6894;52.196;9.904;2023-12-20T03:48:02;2.30;;;0.90;;
13641;SDS011;6894;52.196;9.904;2023-12-20T03:50:30;3.53;;;1.07;;
13641;SDS011;6894;52.196;9.904;2023-12-20T03:52:57;6.27;;;1.57;;
13641;SDS011;6894;52.196;9.904;2023-12-20T03:55:23;1.43;;;0.97;;
13641;SDS011;6894;52.196;9.904;2023-12-20T03:57:50;3.30;;;1.20;;
13641;SDS011;6894;52.196;9.904;2023-12-20T04:00:17;10.30;;;1.63;;
13641;SDS011;6894;52.196;9.904;2023-12-20T04:02:44;5.40;;;1.10;;
13641;SDS011;6894;52.196;9.904;2023-12-20T04:05:12;3.97;;;1.20;;
13641;SDS011;6894;52.196;9.904;2023-12-20T04:07:38;5.33;;;0.93;;
13641;SDS011;6894;52.196;9.904;2023-12-20T04:10:05;4.57;;;1.03;;
13641;SDS011;6894;52.196;9.904;2023-12-20T04:12:33;4.67;;;1.07;;
13641;SDS011;6894;52.196;9.904;2023-12-20T04:14:59;4.33;;;1.30;;
13641;SDS011;6894;52.196;9.904;2023-12-20T04:17:26;4.03;;;1.27;;
13641;SDS011;6894;52.196;9.904;2023-12-20T04:19:53;6.10;;;1.60;;
13641;SDS011;6894;52.196;9.904;2023-12-20T04:22:21;6.87;;;1.30;;
13641;SDS011;6894;52.196;9.904;2023-12-20T04:24:48;6.30;;;1.60;;
13641;SDS011;6894;52.196;9.904;2023-12-20T04:27:15;6.57;;;1.27;;
13641;SDS011;6894;52.196;9.904;2023-12-20T04:29:41;7.13;;;1.53;;
13641;SDS011;6894;52.196;9.904;2023-12-20T04:32:08;5.20;;;1.00;;
13641;SDS011;6894;52.196;9.904;2023-12-20T04:34:35;4.43;;;1.50;;
13641;SDS011;6894;52.196;9.904;2023-12-20T04:37:02;6.33;;;1.30;;
13641;SDS011;6894;52.196;9.904;2023-12-20T04:39:30;3.87;;;0.93;;
13641;SDS011;6894;52.196;9.904;2023-12-20T04:41:58;5.17;;;2.47;;
13641;SDS011;6894;52.196;9.904;2023-12-20T04:44:25;5.40;;;1.40;;
13641;SDS011;6894;52.196;9.904;2023-12-20T04:46:51;6.50;;;1.60;;
13641;SDS011;6894;52.196;9.904;2023-12-20T04:49:18;5.93;;;1.60;;
13641;SDS011;6894;52.196;9.904;2023-12-20T04:51:45;5.33;;;2.37;;
13641;SDS011;6894;52.196;9.904;2023-12-20T04:54:11;4.63;;;1.47;;
13641;SDS011;6894;52.196;9.904;2023-12-20T04:56:41;6.00;;;2.10;;
13641;SDS011;6894;52.196;9.904;2023-12-20T04:59:08;2.10;;;1.20;;
13641;SDS011;6894;52.196;9.904;2023-12-20T05:01:34;7.30;;;1.93;;
13641;SDS011;6894;52.196;9.904;2023-12-20T05:04:01;10.43;;;2.03;;
13641;SDS011;6894;52.196;9.904;2023-12-20T05:06:28;4.83;;;1.30;;
13641;SDS011;6894;52.196;9.904;2023-12-20T05:08:54;4.97;;;2.30;;
13641;SDS011;6894;52.196;9.904;2023-12-20T05:11:21;4.63;;;1.93;;
13641;SDS011;6894;52.196;9.904;2023-12-20T05:13:49;5.87;;;2.00;;
13641;SDS011;6894;52.196;9.904;2023-12-20T05:16:16;4.00;;;2.00;;
13641;SDS011;6894;52.196;9.904;2023-12-20T05:18:45;5.03;;;2.07;;
13641;SDS011;6894;52.196;9.904;2023-12-20T05:21:12;9.30;;;2.73;;
13641;SDS011;6894;52.196;9.904;2023-12-20T05:23:39;6.43;;;2.33;;
13641;SDS011;6894;52.196;9.904;2023-12-20T05:26:06;9.03;;;2.47;;
13641;SDS011;6894;52.196;9.904;2023-12-20T05:28:33;7.43;;;2.17;;
13641;SDS011;6894;52.196;9.904;2023-12-20T05:31:01;8.00;;;2.23;;
13641;SDS011;6894;52.196;9.904;2023-12-20T05:33:28;12.17;;;2.50;;
13641;SDS011;6894;52.196;9.904;2023-12-20T05:35:54;5.73;;;1.90;;
13641;SDS011;6894;52.196;9.904;2023-12-20T05:38:21;6.80;;;2.40;;
13641;SDS011;6894;52.196;9.904;2023-12-20T05:40:48;5.93;;;2.30;;
13641;SDS011;6894;52.196;9.904;2023-12-20T05:43:15;8.40;;;2.23;;
13641;SDS011;6894;52.196;9.904;2023-12-20T05:45:41;7.03;;;2.10;;
13641;SDS011;6894;52.196;9.904;2023-12-20T05:48:10;10.07;;;2.73;;
13641;SDS011;6894;52.196;9.904;2023-12-20T05:50:36;10.90;;;3.03;;
13641;SDS011;6894;52.196;9.904;2023-12-20T05:53:04;7.67;;;2.73;;
13641;SDS011;6894;52.196;9.904;2023-12-20T05:55:31;7.50;;;2.37;;
13641;SDS011;6894;52.196;9.904;2023-12-20T05:57:57;9.67;;;3.10;;
13641;SDS011;6894;52.196;9.904;2023-12-20T06:00:24;8.83;;;3.00;;
13641;SDS011;6894;52.196;9.904;2023-12-20T06:02:51;7.77;;;2.13;;
13641;SDS011;6894;52.196;9.904;2023-12-20T06:05:19;8.50;;;2.07;;
13641;SDS011;6894;52.196;9.904;2023-12-20T06:07:46;6.53;;;2.10;;
13641;SDS011;6894;52.196;9.904;2023-12-20T06:10:13;4.83;;;2.37;;
13641;SDS011;6894;52.196;9.904;2023-12-20T06:12:40;5.10;;;1.60;;
13641;SDS011;6894;52.196;9.904;2023-12-20T06:15:07;5.50;;;1.93;;
13641;SDS011;6894;52.196;9.904;2023-12-20T06:17:34;10.73;;;2.60;;
13641;SDS011;6894;52.196;9.904;2023-12-20T06:20:01;6.60;;;2.03;;
13641;SDS011;6894;52.196;9.904;2023-12-20T06:22:33;7.97;;;2.23;;
13641;SDS011;6894;52.196;9.904;2023-12-20T06:25:00;8.30;;;2.30;;
13641;SDS011;6894;52.196;9.904;2023-12-20T06:27:27;9.70;;;2.80;;
13641;SDS011;6894;52.196;9.904;2023-12-20T06:29:54;10.30;;;2.87;;
13641;SDS011;6894;52.196;9.904;2023-12-20T06:32:21;7.23;;;2.10;;
13641;SDS011;6894;52.196;9.904;2023-12-20T06:34:49;8.20;;;2.87;;
13641;SDS011;6894;52.196;9.904;2023-12-20T06:37:16;7.57;;;2.63;;
13641;SDS011;6894;52.196;9.904;2023-12-20T06:39:44;12.60;;;3.37;;
13641;SDS011;6894;52.196;9.904;2023-12-20T06:42:12;6.37;;;2.07;;
13641;SDS011;6894;52.196;9.904;2023-12-20T06:44:39;11.30;;;2.17;;
13641;SDS011;6894;52.196;9.904;2023-12-20T06:47:06;11.87;;;2.80;;
13641;SDS011;6894;52.196;9.904;2023-12-20T06:49:32;6.50;;;2.03;;
13641;SDS011;6894;52.196;9.904;2023-12-20T06:51:59;7.00;;;2.40;;
13641;SDS011;6894;52.196;9.904;2023-12-20T06:54:26;11.33;;;2.23;;
13641;SDS011;6894;52.196;9.904;2023-12-20T06:56:54;6.63;;;2.50;;
13641;SDS011;6894;52.196;9.904;2023-12-20T06:59:20;10.90;;;2.37;;
13641;SDS011;6894;52.196;9.904;2023-12-20T07:01:47;10.87;;;3.30;;
13641;SDS011;6894;52.196;9.904;2023-12-20T07:04:15;7.53;;;3.03;;
13641;SDS011;6894;52.196;9.904;2023-12-20T07:06:45;15.00;;;2.70;;
13641;SDS011;6894;52.196;9.904;2023-12-20T07:09:12;10.85;;;3.47;;
13641;SDS011;6894;52.196;9.904;2023-12-20T07:11:39;9.97;;;2.70;;
13641;SDS011;6894;52.196;9.904;2023-12-20T07:14:07;7.90;;;2.30;;
13641;SDS011;6894;52.196;9.904;2023-12-20T07:16:34;14.57;;;2.23;;
13641;SDS011;6894;52.196;9.904;2023-12-20T07:19:01;4.43;;;1.90;;
13641;SDS011;6894;52.196;9.904;2023-12-20T07:21:28;6.73;;;2.07;;
13641;SDS011;6894;52.196;9.904;2023-12-20T07:23:55;5.50;;;1.63;;
13641;SDS011;6894;52.196;9.904;2023-12-20T07:26:21;18.13;;;3.30;;
13641;SDS011;6894;52.196;9.904;2023-12-20T07:28:48;5.87;;;2.03;;
13641;SDS011;6894;52.196;9.904;2023-12-20T07:31:16;7.83;;;2.17;;
13641;SDS011;6894;52.196;9.904;2023-12-20T07:33:43;8.57;;;3.07;;
13641;SDS011;6894;52.196;9.904;2023-12-20T07:36:10;9.27;;;2.30;;
13641;SDS011;6894;52.196;9.904;2023-12-20T07:38:37;8.40;;;2.60;;
13641;SDS011;6894;52.196;9.904;2023-12-20T07:41:04;7.90;;;2.13;;
13641;SDS011;6894;52.196;9.904;2023-12-20T07:43:31;6.83;;;2.20;;
13641;SDS011;6894;52.196;9.904;2023-12-20T07:45:57;12.30;;;2.83;;
13641;SDS011;6894;52.196;9.904;2023-12-20T07:48:31;12.17;;;3.10;;
13641;SDS011;6894;52.196;9.904;2023-12-20T07:50:58;7.57;;;2.73;;
13641;SDS011;6894;52.196;9.904;2023-12-20T07:53:25;11.07;;;3.37;;
13641;SDS011;6894;52.196;9.904;2023-12-20T07:55:52;10.47;;;3.23;;
13641;SDS011;6894;52.196;9.904;2023-12-20T07:58:19;8.73;;;2.67;;
13641;SDS011;6894;52.196;9.904;2023-12-20T08:00:45;9.23;;;2.70;;
13641;SDS011;6894;52.196;9.904;2023-12-20T08:03:12;6.27;;;2.17;;
13641;SDS011;6894;52.196;9.904;2023-12-20T08:05:40;8.37;;;2.93;;
13641;SDS011;6894;52.196;9.904;2023-12-20T08:08:07;21.73;;;4.23;;
13641;SDS011;6894;52.196;9.904;2023-12-20T08:10:34;8.07;;;2.87;;
13641;SDS011;6894;52.196;9.904;2023-12-20T08:13:01;9.37;;;4.17;;
13641;SDS011;6894;52.196;9.904;2023-12-20T08:15:27;6.90;;;3.40;;
13641;SDS011;6894;52.196;9.904;2023-12-20T08:17:54;11.80;;;3.80;;
13641;SDS011;6894;52.196;9.904;2023-12-20T08:20:21;13.77;;;4.40;;
13641;SDS011;6894;52.196;9.904;2023-12-20T08:22:49;17.27;;;4.43;;
13641;SDS011;6894;52.196;9.904;2023-12-20T08:25:15;7.57;;;3.70;;
13641;SDS011;6894;52.196;9.904;2023-12-20T08:27:42;8.63;;;3.47;;
13641;SDS011;6894;52.196;9.904;2023-12-20T08:30:09;12.60;;;3.43;;
13641;SDS011;6894;52.196;9.904;2023-12-20T08:32:37;8.30;;;3.60;;
13641;SDS011;6894;52.196;9.904;2023-12-20T08:35:04;9.10;;;2.93;;
13641;SDS011;6894;52.196;9.904;2023-12-20T08:37:31;12.33;;;3.80;;
13641;SDS011;6894;52.196;9.904;2023-12-20T08:39:59;10.70;;;2.50;;
13641;SDS011;6894;52.196;9.904;2023-12-20T08:42:26;12.83;;;3.70;;
13641;SDS011;6894;52.196;9.904;2023-12-20T08:44:56;9.23;;;3.17;;
13641;SDS011;6894;52.196;9.904;2023-12-20T08:47:23;5.53;;;2.90;;
13641;SDS011;6894;52.196;9.904;2023-12-20T08:49:50;10.07;;;3.57;;
13641;SDS011;6894;52.196;9.904;2023-12-20T08:52:17;9.33;;;3.23;;
13641;SDS011;6894;52.196;9.904;2023-12-20T08:54:44;10.43;;;3.20;;
13641;SDS011;6894;52.196;9.904;2023-12-20T08:57:12;8.13;;;3.30;;
13641;SDS011;6894;52.196;9.904;2023-12-20T08:59:39;9.93;;;3.30;;
13641;SDS011;6894;52.196;9.904;2023-12-20T09:02:05;6.60;;;2.33;;
13641;SDS011;6894;52.196;9.904;2023-12-20T09:04:32;8.53;;;2.90;;
13641;SDS011;6894;52.196;9.904;2023-12-20T09:06:59;12.73;;;4.30;;
13641;SDS011;6894;52.196;9.904;2023-12-20T09:09:27;6.40;;;2.87;;
13641;SDS011;6894;52.196;9.904;2023-12-20T09:11:53;10.33;;;3.40;;
13641;SDS011;6894;52.196;9.904;2023-12-20T09:14:22;11.40;;;3.20;;
13641;SDS011;6894;52.196;9.904;2023-12-20T09:16:49;10.90;;;3.47;;
13641;SDS011;6894;52.196;9.904;2023-12-20T09:19:16;13.37;;;2.83;;
13641;SDS011;6894;52.196;9.904;2023-12-20T09:21:43;7.73;;;3.00;;
13641;SDS011;6894;52.196;9.904;2023-12-20T09:24:10;12.20;;;3.30;;
13641;SDS011;6894;52.196;9.904;2023-12-20T09:26:36;9.10;;;3.20;;
13641;SDS011;6894;52.196;9.904;2023-12-20T09:29:04;10.43;;;3.57;;
13641;SDS011;6894;52.196;9.904;2023-12-20T09:31:34;4.57;;;2.47;;
13641;SDS011;6894;52.196;9.904;2023-12-20T09:34:03;12.00;;;3.83;;
13641;SDS011;6894;52.196;9.904;2023-12-20T09:36:29;10.97;;;3.87;;
13641;SDS011;6894;52.196;9.904;2023-12-20T09:38:59;8.40;;;3.10;;
13641;SDS011;6894;52.196;9.904;2023-12-20T09:41:26;10.10;;;3.03;;
13641;SDS011;6894;52.196;9.904;2023-12-20T09:43:54;9.87;;;3.20;;
13641;SDS011;6894;52.196;9.904;2023-12-20T09:46:22;5.93;;;3.10;;
13641;SDS011;6894;52.196;9.904;2023-12-20T09:48:54;10.83;;;2.17;;
13641;SDS011;6894;52.196;9.904;2023-12-20T09:51:21;7.03;;;2.47;;
13641;SDS011;6894;52.196;9.904;2023-12-20T09:53:48;8.83;;;2.30;;
13641;SDS011;6894;52.196;9.904;2023-12-20T09:56:16;5.67;;;2.63;;
13641;SDS011;6894;52.196;9.904;2023-12-20T09:58:43;6.30;;;2.60;;
13641;SDS011;6894;52.196;9.904;2023-12-20T10:01:10;7.87;;;2.20;;
13641;SDS011;6894;52.196;9.904;2023-12-20T10:03:37;6.70;;;2.53;;
13641;SDS011;6894;52.196;9.904;2023-12-20T10:06:08;8.60;;;2.83;;
13641;SDS011;6894;52.196;9.904;2023-12-20T10:08:35;7.20;;;2.83;;
13641;SDS011;6894;52.196;9.904;2023-12-20T10:11:01;5.27;;;1.60;;
13641;SDS011;6894;52.196;9.904;2023-12-20T10:13:29;9.40;;;2.33;;
13641;SDS011;6894;52.196;9.904;2023-12-20T10:15:55;7.67;;;3.40;;
13641;SDS011;6894;52.196;9.904;2023-12-20T10:18:22;5.67;;;1.80;;
13641;SDS011;6894;52.196;9.904;2023-12-20T10:20:49;6.83;;;1.77;;
13641;SDS011;6894;52.196;9.904;2023-12-20T10:23:17;9.90;;;2.63;;
13641;SDS011;6894;52.196;9.904;2023-12-20T10:25:49;14.80;;;3.57;;
13641;SDS011;6894;52.196;9.904;2023-12-20T10:28:23;8.80;;;3.20;;
13641;SDS011;6894;52.196;9.904;2023-12-20T10:30:52;11.03;;;2.90;;
13641;SDS011;6894;52.196;9.904;2023-12-20T10:33:23;6.13;;;3.17;;
13641;SDS011;6894;52.196;9.904;2023-12-20T10:35:50;8.27;;;3.67;;
13641;SDS011;6894;52.196;9.904;2023-12-20T10:38:19;6.80;;;2.90;;
13641;SDS011;6894;52.196;9.904;2023-12-20T10:40:46;12.37;;;4.20;;
13641;SDS011;6894;52.196;9.904;2023-12-20T10:43:13;5.17;;;2.83;;
13641;SDS011;6894;52.196;9.904;2023-12-20T10:45:41;5.97;;;3.20;;
13641;SDS011;6894;52.196;9.904;2023-12-20T10:48:09;5.20;;;2.87;;
13641;SDS011;6894;52.196;9.904;2023-12-20T10:50:36;10.37;;;3.57;;
13641;SDS011;6894;52.196;9.904;2023-12-20T10:53:05;9.10;;;4.33;;
13641;SDS011;6894;52.196;9.904;2023-12-20T10:55:34;9.70;;;4.00;;
13641;SDS011;6894;52.196;9.904;2023-12-20T10:58:01;7.33;;;3.43;;
13641;SDS011;6894;52.196;9.904;2023-12-20T11:00:32;9.60;;;4.73;;
13641;SDS011;6894;52.196;9.904;2023-12-20T11:03:02;7.60;;;4.17;;
13641;SDS011;6894;52.196;9.904;2023-12-20T11:05:31;8.13;;;4.33;;
13641;SDS011;6894;52.196;9.904;2023-12-20T11:08:06;9.50;;;4.47;;
13641;SDS011;6894;52.196;9.904;2023-12-20T11:10:41;4.73;;;2.97;;
13641;SDS011;6894;52.196;9.904;2023-12-20T11:13:15;8.60;;;4.20;;
13641;SDS011;6894;52.196;9.904;2023-12-20T11:15:46;7.80;;;4.63;;
13641;SDS011;6894;52.196;9.904;2023-12-20T11:18:13;9.87;;;4.63;;
13641;SDS011;6894;52.196;9.904;2023-12-20T11:20:41;9.67;;;4.00;;
13641;SDS011;6894;52.196;9.904;2023-12-20T11:23:09;8.40;;;4.90;;
13641;SDS011;6894;52.196;9.904;2023-12-20T11:25:47;9.27;;;5.03;;
13641;SDS011;6894;52.196;9.904;2023-12-20T11:28:14;9.47;;;5.13;;
13641;SDS011;6894;52.196;9.904;2023-12-20T11:30:45;9.97;;;3.97;;
13641;SDS011;6894;52.196;9.904;2023-12-20T11:33:13;12.57;;;5.17;;
13641;SDS011;6894;52.196;9.904;2023-12-20T11:35:40;13.03;;;5.73;;
13641;SDS011;6894;52.196;9.904;2023-12-20T11:38:08;6.50;;;4.13;;
13641;SDS011;6894;52.196;9.904;2023-12-20T11:40:35;7.40;;;4.40;;
13641;SDS011;6894;52.196;9.904;2023-12-20T11:43:03;9.53;;;4.97;;
13641;SDS011;6894;52.196;9.904;2023-12-20T11:45:30;6.07;;;3.70;;
13641;SDS011;6894;52.196;9.904;2023-12-20T11:47:57;9.93;;;4.90;;
13641;SDS011;6894;52.196;9.904;2023-12-20T11:50:24;8.37;;;3.77;;
13641;SDS011;6894;52.196;9.904;2023-12-20T11:52:52;9.57;;;5.10;;
13641;SDS011;6894;52.196;9.904;2023-12-20T11:55:20;10.70;;;4.77;;
13641;SDS011;6894;52.196;9.904;2023-12-20T11:57:47;12.67;;;3.07;;
13641;SDS011;6894;52.196;9.904;2023-12-20T12:00:15;7.20;;;3.53;;
13641;SDS011;6894;52.196;9.904;2023-12-20T12:02:42;10.03;;;3.13;;
13641;SDS011;6894;52.196;9.904;2023-12-20T12:05:09;7.33;;;3.33;;
13641;SDS011;6894;52.196;9.904;2023-12-20T12:07:36;14.13;;;2.90;;
13641;SDS011;6894;52.196;9.904;2023-12-20T12:10:03;9.87;;;3.70;;
13641;SDS011;6894;52.196;9.904;2023-12-20T12:12:30;8.23;;;2.03;;
13641;SDS011;6894;52.196;9.904;2023-12-20T12:14:57;6.73;;;1.63;;
13641;SDS011;6894;52.196;9.904;2023-12-20T12:17:25;1.70;;;1.00;;
13641;SDS011;6894;52.196;9.904;2023-12-20T12:19:52;2.10;;;0.37;;
13641;SDS011;6894;52.196;9.904;2023-12-20T12:22:29;1.93;;;0.70;;
13641;SDS011;6894;52.196;9.904;2023-12-20T12:24:58;2.90;;;0.40;;
13641;SDS011;6894;52.196;9.904;2023-12-20T12:27:25;3.67;;;0.70;;
13641;SDS011;6894;52.196;9.904;2023-12-20T12:30:02;2.27;;;0.50;;
13641;SDS011;6894;52.196;9.904;2023-12-20T12:32:33;1.80;;;0.40;;
13641;SDS011;6894;52.196;9.904;2023-12-20T12:35:00;1.60;;;0.40;;
13641;SDS011;6894;52.196;9.904;2023-12-20T12:37:31;1.50;;;0.60;;
13641;SDS011;6894;52.196;9.904;2023-12-20T12:40:00;1.37;;;0.37;;
13641;SDS011;6894;52.196;9.904;2023-12-20T12:42:26;2.20;;;0.30;;
13641;SDS011;6894;52.196;9.904;2023-12-20T12:44:54;3.50;;;0.50;;
13641;SDS011;6894;52.196;9.904;2023-12-20T12:47:21;1.40;;;1.10;;
13641;SDS011;6894;52.196;9.904;2023-12-20T12:49:49;0.87;;;0.30;;
13641;SDS011;6894;52.196;9.904;2023-12-20T12:52:18;0.20;;;0.17;;
13641;SDS011;6894;52.196;9.904;2023-12-20T12:54:44;2.33;;;0.50;;
13641;SDS011;6894;52.196;9.904;2023-12-20T12:57:12;3.17;;;0.50;;
13641;SDS011;6894;52.196;9.904;2023-12-20T12:59:39;1.33;;;0.40;;
13641;SDS011;6894;52.196;9.904;2023-12-20T13:02:06;2.37;;;0.33;;
13641;SDS011;6894;52.196;9.904;2023-12-20T13:04:33;1.30;;;0.37;;
13641;SDS011;6894;52.196;9.904;2023-12-20T13:07:01;0.40;;;0.20;;
13641;SDS011;6894;52.196;9.904;2023-12-20T13:09:27;1.67;;;0.90;;
13641;SDS011;6894;52.196;9.904;2023-12-20T13:11:54;1.40;;;0.33;;
13641;SDS011;6894;52.196;9.904;2023-12-20T13:14:21;1.70;;;0.77;;
13641;SDS011;6894;52.196;9.904;2023-12-20T13:16:48;0.77;;;0.30;;
13641;SDS011;6894;52.196;9.904;2023-12-20T13:19:14;0.80;;;0.33;;
13641;SDS011;6894;52.196;9.904;2023-12-20T13:21:41;2.17;;;0.30;;
13641;SDS011;6894;52.196;9.904;2023-12-20T13:24:09;1.00;;;0.33;;
13641;SDS011;6894;52.196;9.904;2023-12-20T13:26:36;0.60;;;0.40;;
13641;SDS011;6894;52.196;9.904;2023-12-20T13:29:03;2.47;;;0.27;;
13641;SDS011;6894;52.196;9.904;2023-12-20T13:31:30;1.23;;;0.30;;
13641;SDS011;6894;52.196;9.904;2023-12-20T13:33:56;2.50;;;0.60;;
13641;SDS011;6894;52.196;9.904;2023-12-20T13:36:23;1.70;;;0.63;;
13641;SDS011;6894;52.196;9.904;2023-12-20T13:38:50;0.57;;;0.40;;
13641;SDS011;6894;52.196;9.904;2023-12-20T13:41:18;1.23;;;0.30;;
13641;SDS011;6894;52.196;9.904;2023-12-20T13:43:44;1.47;;;0.50;;
13641;SDS011;6894;52.196;9.904;2023-12-20T13:46:11;0.93;;;0.30;;
13641;SDS011;6894;52.196;9.904;2023-12-20T13:48:39;0.30;;;0.20;;
13641;SDS011;6894;52.196;9.904;2023-12-20T13:51:06;1.90;;;0.40;;
13641;SDS011;6894;52.196;9.904;2023-12-20T13:53:33;2.00;;;0.37;;
13641;SDS011;6894;52.196;9.904;2023-12-20T13:56:00;2.23;;;0.67;;
13641;SDS011;6894;52.196;9.904;2023-12-20T13:58:28;1.63;;;0.70;;
13641;SDS011;6894;52.196;9.904;2023-12-20T14:00:54;3.23;;;0.63;;
13641;SDS011;6894;52.196;9.904;2023-12-20T14:03:21;1.53;;;0.70;;
13641;SDS011;6894;52.196;9.904;2023-12-20T14:05:48;1.63;;;0.50;;
13641;SDS011;6894;52.196;9.904;2023-12-20T14:08:15;1.83;;;0.70;;
13641;SDS011;6894;52.196;9.904;2023-12-20T14:10:41;3.67;;;0.70;;
13641;SDS011;6894;52.196;9.904;2023-12-20T14:13:08;4.67;;;1.30;;
13641;SDS011;6894;52.196;9.904;2023-12-20T14:15:36;2.77;;;0.87;;
13641;SDS011;6894;52.196;9.904;2023-12-20T14:18:04;4.17;;;0.90;;
13641;SDS011;6894;52.196;9.904;2023-12-20T14:20:32;3.00;;;0.70;;
13641;SDS011;6894;52.196;9.904;2023-12-20T14:23:00;1.93;;;0.83;;
13641;SDS011;6894;52.196;9.904;2023-12-20T14:25:26;3.17;;;1.00;;
13641;SDS011;6894;52.196;9.904;2023-12-20T14:27:53;2.87;;;0.80;;
13641;SDS011;6894;52.196;9.904;2023-12-20T14:30:20;2.60;;;0.70;;
13641;SDS011;6894;52.196;9.904;2023-12-20T14:32:48;1.30;;;0.70;;
13641;SDS011;6894;52.196;9.904;2023-12-20T14:35:15;3.20;;;0.90;;
13641;SDS011;6894;52.196;9.904;2023-12-20T14:37:42;4.53;;;0.97;;
13641;SDS011;6894;52.196;9.904;2023-12-20T14:40:10;3.53;;;0.90;;
13641;SDS011;6894;52.196;9.904;2023-12-20T14:42:40;5.07;;;1.30;;
13641;SDS011;6894;52.196;9.904;2023-12-20T14:45:07;4.10;;;1.33;;
13641;SDS011;6894;52.196;9.904;2023-12-20T14:47:34;6.67;;;1.13;;
13641;SDS011;6894;52.196;9.904;2023-12-20T14:50:03;4.07;;;1.13;;
13641;SDS011;6894;52.196;9.904;2023-12-20T14:52:31;6.63;;;1.50;;
13641;SDS011;6894;52.196;9.904;2023-12-20T14:54:59;2.83;;;1.03;;
13641;SDS011;6894;52.196;9.904;2023-12-20T14:57:26;4.83;;;0.90;;
13641;SDS011;6894;52.196;9.904;2023-12-20T14:59:54;4.10;;;1.00;;
13641;SDS011;6894;52.196;9.904;2023-12-20T15:02:21;4.43;;;1.00;;